Time;durP1;ratioP1;P1;durP2;ratioP2;P2;SDS_P1;SDS_P2;PMS_P1;PMS_P2;Temp;Humidity;BMP_temperature;BMP_pressure;BME280_temperature;BME280_humidity;BME280_pressure;Samples;Min_cycle;Max_cycle;Signal;HPM_P1;HPM_P2
2023/08/16 00:04:27;;;;;;;;;;;23.50;61.80;;;;;;10201944;28;93460;-47
2023/08/16 00:09:29;;;;;;;;;;;23.50;61.80;;;;;;10199851;28;93520;-48
2023/08/16 00:14:31;;;;;;;;;;;23.50;61.80;;;;;;10200177;28;93898;-50
2023/08/16 00:19:33;;;;;;;;;;;23.50;61.80;;;;;;10200806;28;93927;-48
2023/08/16 00:24:35;;;;;;;;;;;23.50;61.80;;;;;;10200648;28;94494;-46
2023/08/16 00:29:37;;;;;;;;;;;23.40;61.70;;;;;;10179873;28;94433;-49
2023/08/16 00:34:39;;;;;;;;;;;23.50;61.70;;;;;;10201281;28;93478;-49
2023/08/16 00:39:43;;;;;;;;;;;23.50;61.50;;;;;;10198122;28;93626;-49
2023/08/16 00:44:45;;;;;;;;;;;23.50;61.50;;;;;;10199092;28;93381;-51
2023/08/16 00:49:47;;;;;;;;;;;23.50;61.50;;;;;;10196154;28;96058;-50
2023/08/16 00:54:48;;;;;;;;;;;23.50;61.50;;;;;;10200084;28;94499;-46
2023/08/16 00:59:50;;;;;;;;;;;23.50;61.40;;;;;;10196051;28;94495;-48
2023/08/16 01:04:52;;;;;;;;;;;23.50;61.40;;;;;;10181245;28;94356;-51
2023/08/16 01:09:54;;;;;;;;;;;23.50;61.50;;;;;;10191421;28;94456;-51
2023/08/16 01:15:11;;;;;;;;;;;23.50;61.50;;;;;;10196033;28;93586;-49
2023/08/16 01:20:14;;;;;;;;;;;23.50;61.60;;;;;;10203881;28;94210;-47
2023/08/16 01:25:48;;;;;;;;;;;23.50;61.50;;;;;;10206822;28;92743;-49
2023/08/16 01:30:50;;;;;;;;;;;23.50;61.50;;;;;;10178544;28;94444;-46
2023/08/16 01:35:52;;;;;;;;;;;23.50;61.50;;;;;;10175946;28;94592;-48
2023/08/16 01:41:01;;;;;;;;;;;23.50;61.20;;;;;;10200899;28;95698;-54
2023/08/16 01:46:04;;;;;;;;;;;23.40;61.30;;;;;;10203981;28;94460;-48
2023/08/16 01:51:06;;;;;;;;;;;23.40;61.20;;;;;;10204721;28;94174;-49
2023/08/16 01:56:08;;;;;;;;;;;23.40;61.30;;;;;;10203669;28;93369;-47
2023/08/16 02:01:10;;;;;;;;;;;23.40;61.30;;;;;;10203732;28;93817;-55
2023/08/16 02:06:11;;;;;;;;;;;23.40;61.30;;;;;;10203977;28;94522;-48
2023/08/16 02:11:13;;;;;;;;;;;23.40;61.20;;;;;;10203131;28;93495;-46
2023/08/16 02:16:15;;;;;;;;;;;23.40;61.20;;;;;;10202184;28;92525;-50
2023/08/16 02:21:17;;;;;;;;;;;23.40;61.30;;;;;;10195281;28;94459;-49
2023/08/16 02:26:19;;;;;;;;;;;23.40;61.30;;;;;;10201654;28;94381;-48
2023/08/16 02:31:21;;;;;;;;;;;23.40;61.30;;;;;;10200705;28;96374;-50
2023/08/16 02:36:23;;;;;;;;;;;23.30;61.30;;;;;;10178963;28;94003;-46
2023/08/16 02:41:25;;;;;;;;;;;23.30;61.40;;;;;;10203189;28;94116;-49
2023/08/16 02:46:26;;;;;;;;;;;23.30;61.40;;;;;;10184639;28;94648;-48
2023/08/16 02:51:28;;;;;;;;;;;23.30;61.50;;;;;;10180618;28;93638;-48
2023/08/16 02:56:30;;;;;;;;;;;23.30;61.40;;;;;;10201913;28;95052;-53
2023/08/16 03:01:32;;;;;;;;;;;23.30;61.50;;;;;;10185067;28;93666;-49
2023/08/16 03:06:34;;;;;;;;;;;23.20;61.50;;;;;;10202723;28;93954;-50
2023/08/16 03:11:36;;;;;;;;;;;23.20;61.50;;;;;;10199759;28;94514;-49
2023/08/16 03:16:38;;;;;;;;;;;23.20;61.60;;;;;;10200848;28;93489;-47
2023/08/16 03:21:40;;;;;;;;;;;23.20;61.50;;;;;;10179204;28;97453;-51
2023/08/16 03:26:42;;;;;;;;;;;23.20;61.60;;;;;;10197446;28;94348;-47
2023/08/16 03:31:44;;;;;;;;;;;23.20;61.50;;;;;;10198755;28;94731;-47
2023/08/16 03:36:46;;;;;;;;;;;23.20;61.60;;;;;;10198651;28;93813;-49
2023/08/16 03:41:47;;;;;;;;;;;23.10;61.50;;;;;;10183621;28;93473;-47
2023/08/16 03:46:50;;;;;;;;;;;23.10;61.50;;;;;;10200407;28;93832;-46
2023/08/16 03:51:52;;;;;;;;;;;23.10;61.50;;;;;;10182435;28;94482;-48
2023/08/16 03:56:56;;;;;;;;;;;23.10;61.60;;;;;;10183251;28;93954;-48
2023/08/16 04:01:58;;;;;;;;;;;23.10;61.70;;;;;;10199847;28;94812;-47
2023/08/16 04:07:00;;;;;;;;;;;23.10;61.50;;;;;;10200864;28;94482;-46
2023/08/16 04:12:02;;;;;;;;;;;23.10;61.60;;;;;;10198376;28;98247;-50
2023/08/16 04:17:04;;;;;;;;;;;23.10;61.60;;;;;;10168673;28;93487;-49
2023/08/16 04:22:06;;;;;;;;;;;23.10;61.60;;;;;;10199447;28;95747;-50
2023/08/16 04:27:07;;;;;;;;;;;23.00;61.50;;;;;;10197731;28;94667;-46
2023/08/16 04:32:10;;;;;;;;;;;23.10;61.60;;;;;;10194335;28;95853;-50
2023/08/16 04:37:11;;;;;;;;;;;23.00;61.60;;;;;;10181160;28;94374;-47
2023/08/16 04:42:13;;;;;;;;;;;23.00;61.50;;;;;;10172193;28;93678;-46
2023/08/16 04:52:30;;;;;;;;;;;23.00;61.50;;;;;;10213445;28;94167;-49
2023/08/16 04:57:32;;;;;;;;;;;23.00;61.60;;;;;;10224885;28;95156;-50
2023/08/16 05:02:34;;;;;;;;;;;23.00;61.50;;;;;;10226045;28;97180;-47
2023/08/16 05:07:36;;;;;;;;;;;22.90;61.50;;;;;;10244379;28;93360;-44
2023/08/16 05:12:37;;;;;;;;;;;22.90;61.50;;;;;;10238429;28;94507;-47
2023/08/16 05:17:39;;;;;;;;;;;22.90;61.50;;;;;;10213751;28;93633;-46
2023/08/16 05:22:41;;;;;;;;;;;23.00;61.50;;;;;;10243805;28;93626;-46
2023/08/16 05:27:43;;;;;;;;;;;22.90;61.70;;;;;;10235393;28;95110;-45
2023/08/16 05:32:44;;;;;;;;;;;22.90;61.80;;;;;;10226750;28;93378;-47
2023/08/16 05:37:46;;;;;;;;;;;22.90;61.80;;;;;;10239397;28;92886;-50
2023/08/16 05:42:48;;;;;;;;;;;22.90;61.80;;;;;;10243328;28;93459;-47
2023/08/16 05:47:49;;;;;;;;;;;23.00;62.00;;;;;;10242828;28;93410;-48
2023/08/16 05:52:51;;;;;;;;;;;23.00;62.00;;;;;;10230486;28;96407;-46
2023/08/16 05:57:53;;;;;;;;;;;23.00;61.90;;;;;;10241140;28;93789;-48
2023/08/16 06:02:56;;;;;;;;;;;23.10;61.90;;;;;;10242922;28;94129;-48
2023/08/16 06:07:58;;;;;;;;;;;23.10;62.00;;;;;;10227488;28;94151;-48
2023/08/16 06:13:00;;;;;;;;;;;23.10;62.00;;;;;;10242694;28;94035;-48
2023/08/16 06:18:02;;;;;;;;;;;23.10;62.00;;;;;;10241662;28;95244;-50
2023/08/16 06:23:04;;;;;;;;;;;23.10;62.00;;;;;;10210244;28;94874;-50
2023/08/16 06:28:06;;;;;;;;;;;23.10;62.00;;;;;;10244247;28;93767;-52
2023/08/16 06:33:07;;;;;;;;;;;23.20;62.10;;;;;;10241319;28;93572;-46
2023/08/16 06:38:10;;;;;;;;;;;23.20;62.10;;;;;;10243233;28;93459;-48
2023/08/16 06:43:12;;;;;;;;;;;23.20;62.20;;;;;;10240033;28;96852;-49
2023/08/16 06:48:14;;;;;;;;;;;23.20;62.20;;;;;;10239291;28;93468;-48
2023/08/16 06:53:15;;;;;;;;;;;23.20;62.10;;;;;;10225205;28;93498;-48
2023/08/16 06:58:17;;;;;;;;;;;23.20;62.30;;;;;;10241209;28;94373;-48
2023/08/16 07:03:19;;;;;;;;;;;23.20;62.40;;;;;;10239277;28;93730;-47
2023/08/16 07:08:20;;;;;;;;;;;23.30;62.60;;;;;;10229979;28;94677;-49
2023/08/16 07:13:22;;;;;;;;;;;23.30;62.70;;;;;;10223279;28;94468;-47
2023/08/16 07:18:24;;;;;;;;;;;23.30;62.80;;;;;;10237198;28;93732;-48
2023/08/16 07:23:26;;;;;;;;;;;23.30;62.80;;;;;;10236708;28;94586;-49
2023/08/16 07:28:28;;;;;;;;;;;23.40;62.90;;;;;;10237086;28;93952;-49
2023/08/16 07:33:30;;;;;;;;;;;23.30;63.00;;;;;;10218548;28;95883;-50
2023/08/16 07:38:32;;;;;;;;;;;23.40;63.10;;;;;;10237219;28;93049;-48
2023/08/16 07:43:34;;;;;;;;;;;23.40;63.30;;;;;;10234272;28;94664;-47
2023/08/16 07:48:36;;;;;;;;;;;23.30;63.30;;;;;;10237296;28;93464;-52
2023/08/16 07:53:38;;;;;;;;;;;23.40;63.30;;;;;;10234411;28;94434;-47
2023/08/16 07:58:40;;;;;;;;;;;23.30;63.40;;;;;;10235854;28;94523;-50
2023/08/16 08:03:42;;;;;;;;;;;23.40;63.50;;;;;;10234449;28;94544;-50
2023/08/16 08:08:43;;;;;;;;;;;23.40;63.70;;;;;;10230110;28;92996;-58
2023/08/16 08:13:45;;;;;;;;;;;23.40;63.70;;;;;;10232442;28;94461;-51
2023/08/16 08:18:47;;;;;;;;;;;23.40;63.80;;;;;;10235045;28;93850;-49
2023/08/16 08:23:49;;;;;;;;;;;23.40;63.90;;;;;;10239394;28;96325;-48
2023/08/16 08:28:51;;;;;;;;;;;23.40;64.00;;;;;;10238695;28;93497;-51
2023/08/16 08:33:53;;;;;;;;;;;23.40;64.10;;;;;;10243031;28;94390;-47
2023/08/16 08:38:55;;;;;;;;;;;23.40;64.20;;;;;;10239810;28;93491;-49
2023/08/16 08:43:56;;;;;;;;;;;23.40;64.20;;;;;;10219408;28;94204;-47
2023/08/16 08:49:01;;;;;;;;;;;23.40;64.30;;;;;;10230253;28;93938;-47
2023/08/16 08:54:04;;;;;;;;;;;23.50;64.40;;;;;;10226848;28;94579;-46
2023/08/16 08:59:06;;;;;;;;;;;23.40;64.50;;;;;;10245809;28;92412;-46
2023/08/16 09:04:16;;;;;;;;;;;23.40;64.90;;;;;;10231836;28;93834;-45
2023/08/16 09:09:18;;;;;;;;;;;23.50;63.80;;;;;;10215171;28;94598;-46
2023/08/16 09:14:20;;;;;;;;;;;23.50;63.00;;;;;;10218398;28;96892;-47
2023/08/16 09:19:21;;;;;;;;;;;23.40;63.40;;;;;;10236478;28;94456;-47
2023/08/16 09:24:26;;;;;;;;;;;23.40;62.10;;;;;;10234131;28;93475;-47
2023/08/16 09:29:29;;;;;;;;;;;23.40;61.70;;;;;;10237337;28;93664;-46
2023/08/16 09:34:32;;;;;;;;;;;23.40;61.50;;;;;;10218014;28;93909;-47
2023/08/16 09:39:36;;;;;;;;;;;23.40;61.60;;;;;;10238277;28;93490;-52
2023/08/16 09:44:40;;;;;;;;;;;23.40;61.70;;;;;;10224892;28;93565;-48
2023/08/16 09:49:44;;;;;;;;;;;23.40;61.70;;;;;;10235072;28;92554;-48
2023/08/16 09:54:47;;;;;;;;;;;23.40;61.80;;;;;;10242199;28;94381;-69
2023/08/16 09:59:49;;;;;;;;;;;23.50;61.60;;;;;;10243548;28;94284;-50
2023/08/16 10:04:51;;;;;;;;;;;23.60;61.40;;;;;;10238115;28;95852;-48
2023/08/16 10:09:55;;;;;;;;;;;23.70;61.30;;;;;;10243707;28;93003;-47
2023/08/16 10:14:58;;;;;;;;;;;23.70;61.10;;;;;;10240398;28;94473;-47
2023/08/16 10:20:04;;;;;;;;;;;23.80;61.00;;;;;;10218377;28;93748;-47
2023/08/16 10:25:16;;;;;;;;;;;23.90;60.90;;;;;;10243317;28;94481;-46
2023/08/16 10:30:19;;;;;;;;;;;23.90;60.70;;;;;;10244269;28;93796;-46
2023/08/16 10:35:22;;;;;;;;;;;24.00;60.60;;;;;;10221011;28;93456;-47
2023/08/16 10:40:24;;;;;;;;;;;24.00;60.60;;;;;;10240106;28;93445;-48
2023/08/16 10:45:29;;;;;;;;;;;24.00;60.50;;;;;;10241766;28;93961;-47
2023/08/16 10:50:34;;;;;;;;;;;24.10;60.50;;;;;;10226027;28;93254;-51
2023/08/16 10:55:36;;;;;;;;;;;24.00;60.40;;;;;;10236562;28;96437;-47
2023/08/16 11:00:40;;;;;;;;;;;24.00;60.40;;;;;;10241578;28;114053;-50
2023/08/16 11:05:42;;;;;;;;;;;24.00;60.50;;;;;;10224563;28;94416;-46
2023/08/16 11:10:45;;;;;;;;;;;24.00;60.60;;;;;;10219692;28;94493;-47
2023/08/16 11:15:47;;;;;;;;;;;24.00;60.60;;;;;;10236764;28;94489;-46
2023/08/16 11:20:49;;;;;;;;;;;24.00;60.70;;;;;;10223800;28;94383;-46
2023/08/16 11:25:58;;;;;;;;;;;24.00;60.70;;;;;;10228544;28;94283;-50
2023/08/16 11:31:02;;;;;;;;;;;24.00;61.00;;;;;;10213137;28;93182;-47
2023/08/16 11:36:05;;;;;;;;;;;24.00;61.30;;;;;;10222027;28;93760;-50
2023/08/16 11:41:07;;;;;;;;;;;24.00;59.80;;;;;;10240554;28;93454;-50
2023/08/16 11:46:09;;;;;;;;;;;23.90;58.90;;;;;;10217051;28;96159;-47
2023/08/16 11:51:11;;;;;;;;;;;23.80;58.20;;;;;;10225521;28;93501;-46
2023/08/16 11:56:13;;;;;;;;;;;23.80;58.20;;;;;;10229779;28;93246;-46
2023/08/16 12:01:15;;;;;;;;;;;23.70;58.40;;;;;;10195559;28;94523;-49
2023/08/16 12:06:21;;;;;;;;;;;23.70;58.40;;;;;;10152676;28;94691;-46
2023/08/16 12:11:49;;;;;;;;;;;23.70;57.80;;;;;;10179600;28;97325;-47
2023/08/16 12:16:51;;;;;;;;;;;23.60;59.50;;;;;;10153213;28;94822;-47
2023/08/16 12:22:17;;;;;;;;;;;23.60;57.40;;;;;;10222439;28;94018;-45
2023/08/16 12:27:19;;;;;;;;;;;23.60;57.40;;;;;;10219125;28;94103;-46
2023/08/16 12:32:21;;;;;;;;;;;23.60;58.00;;;;;;10216524;28;93337;-49
2023/08/16 12:37:22;;;;;;;;;;;23.70;58.30;;;;;;10206382;28;95515;-47
2023/08/16 12:42:25;;;;;;;;;;;23.70;57.90;;;;;;10211887;28;94059;-48
2023/08/16 12:47:28;;;;;;;;;;;23.70;57.90;;;;;;10215912;28;94042;-50
2023/08/16 12:52:30;;;;;;;;;;;23.70;58.40;;;;;;10207371;28;94488;-45
2023/08/16 12:57:32;;;;;;;;;;;23.70;58.00;;;;;;10187734;28;95159;-51
2023/08/16 13:02:38;;;;;;;;;;;23.70;58.20;;;;;;10219871;28;93530;-48
2023/08/16 13:07:40;;;;;;;;;;;23.70;57.90;;;;;;10232844;28;94434;-46
2023/08/16 13:12:44;;;;;;;;;;;23.80;58.10;;;;;;10227234;28;93182;-46
2023/08/16 13:17:50;;;;;;;;;;;23.80;58.10;;;;;;10232544;28;94471;-43
2023/08/16 13:23:12;;;;;;;;;;;23.80;57.70;;;;;;10233938;28;94681;-45
2023/08/16 13:28:16;;;;;;;;;;;23.80;57.00;;;;;;10227690;28;96399;-48
2023/08/16 13:33:23;;;;;;;;;;;23.90;57.10;;;;;;10211796;28;94304;-51
2023/08/16 13:38:28;;;;;;;;;;;23.90;56.70;;;;;;10234322;28;94091;-48
2023/08/16 13:43:34;;;;;;;;;;;23.90;57.40;;;;;;10203595;28;93344;-50
2023/08/16 13:48:38;;;;;;;;;;;23.90;56.40;;;;;;10221303;28;94246;-46
2023/08/16 13:53:42;;;;;;;;;;;23.90;56.20;;;;;;10216103;28;93711;-46
2023/08/16 13:58:44;;;;;;;;;;;23.90;56.10;;;;;;10228079;28;94323;-47
2023/08/16 14:03:47;;;;;;;;;;;23.90;56.10;;;;;;10231157;28;93254;-49
2023/08/16 14:08:49;;;;;;;;;;;23.90;56.70;;;;;;10203758;28;94575;-46
2023/08/16 14:13:51;;;;;;;;;;;23.90;56.00;;;;;;10202377;28;94500;-47
2023/08/16 14:18:54;;;;;;;;;;;23.90;55.90;;;;;;10207474;28;96980;-48
2023/08/16 14:23:56;;;;;;;;;;;23.90;56.00;;;;;;10217888;28;93383;-49
2023/08/16 14:28:58;;;;;;;;;;;23.80;56.00;;;;;;10219571;28;94157;-48
2023/08/16 14:34:00;;;;;;;;;;;23.80;56.30;;;;;;10232623;28;93458;-46
2023/08/16 14:39:02;;;;;;;;;;;23.80;55.80;;;;;;10201709;28;93297;-46
2023/08/16 14:44:04;;;;;;;;;;;23.80;56.10;;;;;;10211189;28;95575;-49
2023/08/16 14:49:06;;;;;;;;;;;23.90;56.60;;;;;;10228731;28;94508;-47
2023/08/16 14:54:07;;;;;;;;;;;23.90;56.50;;;;;;10232473;28;93364;-45
2023/08/16 14:59:10;;;;;;;;;;;23.90;56.60;;;;;;10225494;28;94480;-45
2023/08/16 15:04:11;;;;;;;;;;;23.90;56.60;;;;;;10200779;28;94397;-45
2023/08/16 15:09:13;;;;;;;;;;;23.90;56.60;;;;;;10215449;28;97219;-46
2023/08/16 15:14:18;;;;;;;;;;;23.80;56.30;;;;;;10217542;28;93488;-45
2023/08/16 15:19:20;;;;;;;;;;;23.80;56.10;;;;;;10206458;28;93497;-46
2023/08/16 15:24:21;;;;;;;;;;;23.80;56.20;;;;;;10212874;28;94420;-47
2023/08/16 15:29:23;;;;;;;;;;;23.80;56.50;;;;;;10213886;28;93991;-49
2023/08/16 15:34:25;;;;;;;;;;;23.80;56.40;;;;;;10208776;28;94546;-50
2023/08/16 15:39:28;;;;;;;;;;;23.90;57.90;;;;;;10226046;28;94393;-46
2023/08/16 15:44:30;;;;;;;;;;;24.00;58.10;;;;;;10201118;28;92753;-48
2023/08/16 15:49:32;;;;;;;;;;;24.10;58.00;;;;;;10232890;28;94018;-50
2023/08/16 15:54:35;;;;;;;;;;;24.20;59.80;;;;;;10228331;28;93424;-46
2023/08/16 15:59:36;;;;;;;;;;;24.20;59.50;;;;;;10216447;28;95861;-54
2023/08/16 16:04:48;;;;;;;;;;;24.20;59.20;;;;;;10223511;28;95050;-54
2023/08/16 16:09:51;;;;;;;;;;;24.30;61.00;;;;;;10211720;28;93552;-48
2023/08/16 16:14:53;;;;;;;;;;;24.40;60.60;;;;;;10210410;28;94185;-48
2023/08/16 16:19:54;;;;;;;;;;;24.50;62.60;;;;;;10219469;28;95058;-50
2023/08/16 16:24:56;;;;;;;;;;;24.50;60.00;;;;;;10221212;28;93254;-55
2023/08/16 16:30:00;;;;;;;;;;;24.60;58.80;;;;;;10214356;28;94308;-55
2023/08/16 16:35:02;;;;;;;;;;;24.60;58.20;;;;;;10231357;28;92951;-55
2023/08/16 16:40:05;;;;;;;;;;;24.50;57.50;;;;;;10227048;28;93560;-55
2023/08/16 16:45:07;;;;;;;;;;;24.50;57.90;;;;;;10237719;28;94603;-56
2023/08/16 16:50:09;;;;;;;;;;;24.40;57.30;;;;;;10227365;28;96835;-56
2023/08/16 16:55:11;;;;;;;;;;;24.40;57.80;;;;;;10234419;28;93466;-56
2023/08/16 17:00:13;;;;;;;;;;;24.40;58.00;;;;;;10229677;28;94089;-57
2023/08/16 17:05:14;;;;;;;;;;;24.30;57.80;;;;;;10230029;28;94484;-56
2023/08/16 17:10:17;;;;;;;;;;;24.30;57.80;;;;;;10226252;28;94153;-55
2023/08/16 17:15:19;;;;;;;;;;;24.20;57.20;;;;;;10210121;28;93474;-56
2023/08/16 17:20:21;;;;;;;;;;;24.20;57.10;;;;;;10222380;28;93700;-60
2023/08/16 17:25:22;;;;;;;;;;;24.20;56.90;;;;;;10221858;28;93695;-66
2023/08/16 17:30:27;;;;;;;;;;;24.10;56.70;;;;;;10221100;28;94605;-56
2023/08/16 17:35:29;;;;;;;;;;;24.10;57.00;;;;;;10208023;28;94866;-56
2023/08/16 17:40:32;;;;;;;;;;;24.10;57.20;;;;;;10216334;28;96519;-56
2023/08/16 17:45:33;;;;;;;;;;;24.00;57.50;;;;;;10209810;28;94295;-56
2023/08/16 17:50:35;;;;;;;;;;;24.00;57.50;;;;;;10236225;28;94088;-56
2023/08/16 17:55:37;;;;;;;;;;;24.00;57.50;;;;;;10233923;28;93893;-57
2023/08/16 18:00:39;;;;;;;;;;;24.00;57.70;;;;;;10221640;28;93702;-57
2023/08/16 18:05:41;;;;;;;;;;;24.00;57.70;;;;;;10235390;28;94175;-57
2023/08/16 18:10:42;;;;;;;;;;;23.90;57.90;;;;;;10214090;28;94767;-56
2023/08/16 18:15:44;;;;;;;;;;;23.90;58.30;;;;;;10235077;28;94067;-56
2023/08/16 18:20:53;;;;;;;;;;;23.80;58.50;;;;;;10223655;28;94678;-57
2023/08/16 18:25:56;;;;;;;;;;;23.80;58.80;;;;;;10224090;28;93549;-57
2023/08/16 18:30:58;;;;;;;;;;;23.70;59.10;;;;;;10227940;28;96941;-57
2023/08/16 18:36:00;;;;;;;;;;;23.70;59.40;;;;;;10214730;28;93936;-56
2023/08/16 18:41:06;;;;;;;;;;;23.60;59.40;;;;;;10234188;28;93484;-58
2023/08/16 18:46:08;;;;;;;;;;;23.60;59.30;;;;;;10228015;28;95168;-57
2023/08/16 18:51:10;;;;;;;;;;;23.60;59.50;;;;;;10225646;28;94586;-58
2023/08/16 18:56:11;;;;;;;;;;;23.50;60.00;;;;;;10204481;28;94753;-46
2023/08/16 19:01:13;;;;;;;;;;;23.50;59.90;;;;;;10228230;28;93446;-49
2023/08/16 19:06:19;;;;;;;;;;;23.50;59.10;;;;;;10220031;28;92624;-49
2023/08/16 19:11:20;;;;;;;;;;;23.50;59.20;;;;;;10218925;28;94411;-48
2023/08/16 19:16:22;;;;;;;;;;;23.40;59.50;;;;;;10215622;28;94636;-49
2023/08/16 19:21:25;;;;;;;;;;;23.50;60.00;;;;;;10218019;28;95718;-50
2023/08/16 19:26:26;;;;;;;;;;;23.60;59.70;;;;;;10203528;28;94145;-51
2023/08/16 19:31:28;;;;;;;;;;;23.60;59.60;;;;;;10226089;28;94498;-49
2023/08/16 19:36:30;;;;;;;;;;;23.70;59.60;;;;;;10218862;28;94763;-48
2023/08/16 19:41:32;;;;;;;;;;;23.80;59.50;;;;;;10220148;28;93665;-50
2023/08/16 19:46:34;;;;;;;;;;;23.80;59.40;;;;;;10230306;28;97544;-46
2023/08/16 19:51:35;;;;;;;;;;;23.80;59.20;;;;;;10203025;28;93457;-47
2023/08/16 19:56:37;;;;;;;;;;;23.80;59.20;;;;;;10233912;28;94731;-49
2023/08/16 20:01:39;;;;;;;;;;;23.80;59.20;;;;;;10227393;28;94345;-47
2023/08/16 20:06:48;;;;;;;;;;;23.90;59.30;;;;;;10223805;28;94404;-46
2023/08/16 20:11:50;;;;;;;;;;;23.90;59.30;;;;;;10221746;28;95842;-48
2023/08/16 20:16:52;;;;;;;;;;;23.90;59.30;;;;;;10233543;28;94439;-47
2023/08/16 20:21:53;;;;;;;;;;;23.90;59.30;;;;;;10229271;28;93629;-46
2023/08/16 20:26:55;;;;;;;;;;;23.90;59.10;;;;;;10238202;28;94475;-47
2023/08/16 20:31:57;;;;;;;;;;;23.90;60.20;;;;;;10228643;28;94633;-48
2023/08/16 20:36:59;;;;;;;;;;;23.90;59.20;;;;;;10215675;28;93918;-47
2023/08/16 20:42:00;;;;;;;;;;;23.90;59.30;;;;;;10223787;28;93101;-45
2023/08/16 20:47:04;;;;;;;;;;;23.90;59.30;;;;;;10212995;28;92560;-49
2023/08/16 20:52:06;;;;;;;;;;;23.90;59.40;;;;;;10217719;28;94599;-50
2023/08/16 20:57:08;;;;;;;;;;;23.90;59.50;;;;;;10221214;28;94498;-48
2023/08/16 21:02:10;;;;;;;;;;;23.90;59.60;;;;;;10234462;28;97293;-50
2023/08/16 21:07:12;;;;;;;;;;;23.90;59.70;;;;;;10198192;28;95096;-48
2023/08/16 21:12:14;;;;;;;;;;;23.90;59.90;;;;;;10237067;28;93090;-50
2023/08/16 21:17:16;;;;;;;;;;;23.90;59.90;;;;;;10232672;28;94420;-53
2023/08/16 21:22:18;;;;;;;;;;;23.90;59.90;;;;;;10216426;28;94533;-51
2023/08/16 21:27:20;;;;;;;;;;;23.90;60.00;;;;;;10213014;28;94428;-49
2023/08/16 21:32:23;;;;;;;;;;;23.90;61.10;;;;;;10234009;28;93474;-51
2023/08/16 21:37:25;;;;;;;;;;;23.90;60.10;;;;;;10239174;28;92656;-48
2023/08/16 21:42:27;;;;;;;;;;;23.90;60.10;;;;;;10232309;28;93257;-47
2023/08/16 21:47:28;;;;;;;;;;;23.90;60.30;;;;;;10228011;28;94980;-46
2023/08/16 21:52:30;;;;;;;;;;;23.90;60.40;;;;;;10229443;28;96222;-49
2023/08/16 21:57:32;;;;;;;;;;;23.90;60.60;;;;;;10208847;28;94457;-51
2023/08/16 22:02:35;;;;;;;;;;;23.90;60.50;;;;;;10236062;28;93466;-46
2023/08/16 22:07:36;;;;;;;;;;;23.90;60.60;;;;;;10232977;28;94512;-47
2023/08/16 22:12:38;;;;;;;;;;;23.90;60.70;;;;;;10216305;28;94564;-48
2023/08/16 22:17:40;;;;;;;;;;;24.00;60.70;;;;;;10211607;28;94543;-46
2023/08/16 22:22:43;;;;;;;;;;;23.90;60.70;;;;;;10234495;28;93575;-46
2023/08/16 22:27:46;;;;;;;;;;;23.90;60.70;;;;;;10208899;28;93677;-46
2023/08/16 22:32:50;;;;;;;;;;;23.90;60.70;;;;;;10214684;28;93549;-45
2023/08/16 22:37:52;;;;;;;;;;;23.90;60.70;;;;;;10233455;28;94490;-46
2023/08/16 22:42:53;;;;;;;;;;;23.90;60.70;;;;;;10207233;28;96823;-48
2023/08/16 22:47:55;;;;;;;;;;;23.90;60.70;;;;;;10232969;28;94840;-46
2023/08/16 22:52:58;;;;;;;;;;;23.80;60.70;;;;;;10234628;28;94476;-45
2023/08/16 22:58:00;;;;;;;;;;;23.80;60.70;;;;;;10227500;28;94522;-45
2023/08/16 23:03:02;;;;;;;;;;;23.80;60.80;;;;;;10236073;28;94943;-48
2023/08/16 23:08:05;;;;;;;;;;;23.80;60.70;;;;;;10217508;28;94512;-46
2023/08/16 23:13:07;;;;;;;;;;;23.80;60.60;;;;;;10224829;28;93453;-48
2023/08/16 23:18:09;;;;;;;;;;;23.80;60.70;;;;;;10234560;28;92702;-46
2023/08/16 23:23:11;;;;;;;;;;;23.80;60.70;;;;;;10219165;28;94110;-50
2023/08/16 23:28:13;;;;;;;;;;;23.80;60.60;;;;;;10215570;28;93411;-49
2023/08/16 23:33:14;;;;;;;;;;;23.80;60.60;;;;;;10230665;28;97149;-50
2023/08/16 23:38:17;;;;;;;;;;;23.80;60.60;;;;;;10223721;28;93535;-51
2023/08/16 23:43:19;;;;;;;;;;;23.70;60.60;;;;;;10197566;28;94543;-48
2023/08/16 23:48:20;;;;;;;;;;;23.80;60.60;;;;;;10208285;28;94869;-50
2023/08/16 23:53:22;;;;;;;;;;;23.80;60.60;;;;;;10228627;28;94717;-48
2023/08/16 23:58:24;;;;;;;;;;;23.80;60.60;;;;;;10227321;28;93469;-46
